Terminal Aerodrome Forecast
Issued by NWS Wakefield, VA

Home | Current Version | Previous Version | Text Only | Print | Product List | Glossary On
Versions: 1 2 3 4 5 6 7 8 9 10 11 12 13 14 15 16 17 18 19 20 21
000
FTUS41 KAKQ 191700
TAFRIC
TAF
KRIC 191729Z 1918/2018 VRB06KT P6SM SKC
     FM200800 03003KT P6SM BKN200
     FM201600 VRB04KT P6SM BKN030 OVC080=

USA.gov is the U.S. government's official web portal to all federal, state and local government web resources and services.